Time;durP1;ratioP1;P1;durP2;ratioP2;P2;SDS_P1;SDS_P2;PMS_P1;PMS_P2;Temp;Humidity;BMP_temperature;BMP_pressure;BME280_temperature;BME280_humidity;BME280_pressure;Samples;Min_cycle;Max_cycle;Signal;HPM_P1;HPM_P2
2021/05/31 00:01:01;;;;;;;11.70;9.18;;;13.40;90.40;;;;;;6182870;23;20323;-71
2021/05/31 00:03:27;;;;;;;16.08;10.88;;;13.40;90.60;;;;;;6183967;23;19997;-75
2021/05/31 00:05:53;;;;;;;18.08;11.52;;;13.30;90.70;;;;;;6182579;23;20005;-71
2021/05/31 00:08:18;;;;;;;17.65;11.35;;;13.30;90.90;;;;;;6183574;23;20307;-70
2021/05/31 00:10:44;;;;;;;16.25;11.70;;;13.20;90.90;;;;;;6183380;23;20068;-69
2021/05/31 00:13:10;;;;;;;14.75;10.98;;;13.20;90.90;;;;;;6182785;23;19997;-66
2021/05/31 00:15:35;;;;;;;17.50;10.55;;;13.20;91.00;;;;;;6183385;23;20019;-71
2021/05/31 00:18:01;;;;;;;16.35;11.48;;;13.10;91.20;;;;;;6183713;23;20005;-68
2021/05/31 00:20:27;;;;;;;17.05;10.52;;;13.10;91.40;;;;;;6183670;23;20084;-66
2021/05/31 00:22:53;;;;;;;14.18;9.20;;;13.00;91.50;;;;;;6183465;23;20061;-65
2021/05/31 00:25:19;;;;;;;12.57;9.63;;;13.00;91.60;;;;;;6183400;23;20017;-66
2021/05/31 00:27:45;;;;;;;13.90;10.35;;;12.90;91.70;;;;;;6182516;23;20512;-65
2021/05/31 00:30:12;;;;;;;16.65;10.63;;;12.90;91.90;;;;;;6157319;23;19997;-67
2021/05/31 00:32:38;;;;;;;19.95;12.77;;;12.90;92.10;;;;;;6183511;23;20330;-66
2021/05/31 00:35:06;;;;;;;16.23;11.65;;;12.90;92.20;;;;;;6182635;23;20012;-66
2021/05/31 00:37:31;;;;;;;19.83;11.95;;;12.90;92.30;;;;;;6156949;23;20008;-74
2021/05/31 00:39:57;;;;;;;18.90;12.23;;;12.90;92.50;;;;;;6183430;23;20441;-74
2021/05/31 00:42:22;;;;;;;25.70;15.65;;;12.80;92.60;;;;;;6156635;23;20058;-74
2021/05/31 00:44:48;;;;;;;16.92;13.73;;;12.80;92.60;;;;;;6182934;23;20005;-71
2021/05/31 00:47:16;;;;;;;16.67;12.40;;;12.80;92.70;;;;;;6183385;23;20036;-72
2021/05/31 00:49:41;;;;;;;15.68;11.63;;;12.70;92.80;;;;;;6182484;23;19997;-73
2021/05/31 00:52:08;;;;;;;16.52;11.93;;;12.70;92.90;;;;;;6183504;23;20012;-64
2021/05/31 00:54:35;;;;;;;18.98;12.23;;;12.70;93.00;;;;;;6183002;23;20005;-65
2021/05/31 00:57:02;;;;;;;20.63;12.77;;;12.60;93.10;;;;;;6182539;23;20438;-64
2021/05/31 00:59:27;;;;;;;18.65;12.18;;;12.60;93.30;;;;;;6183578;23;20406;-65
2021/05/31 01:01:53;;;;;;;18.55;11.77;;;12.60;93.40;;;;;;6183120;23;20088;-65
2021/05/31 01:04:20;;;;;;;18.95;13.32;;;12.60;93.50;;;;;;6182473;23;20001;-64
2021/05/31 01:07:06;;;;;;;17.52;12.48;;;12.60;93.60;;;;;;6183460;23;20008;-73
2021/05/31 01:09:57;;;;;;;20.45;13.93;;;12.60;93.80;;;;;;6182117;23;20360;-74
2021/05/31 01:12:29;;;;;;;18.98;13.52;;;12.60;93.80;;;;;;6183545;23;20029;-72
2021/05/31 01:15:05;;;;;;;18.25;13.48;;;12.60;93.70;;;;;;6183100;23;20005;-68
2021/05/31 01:17:51;;;;;;;23.67;15.30;;;12.60;93.80;;;;;;6182458;23;20044;-70
2021/05/31 01:20:27;;;;;;;23.00;14.85;;;12.60;93.90;;;;;;6183204;23;20020;-69
2021/05/31 01:22:54;;;;;;;22.88;14.23;;;12.60;93.80;;;;;;6157104;23;20009;-65
2021/05/31 01:25:33;;;;;;;20.52;14.10;;;12.60;93.90;;;;;;6182035;23;20036;-65
2021/05/31 01:28:09;;;;;;;19.45;13.25;;;12.50;94.00;;;;;;6156653;23;20029;-66
2021/05/31 01:30:35;;;;;;;20.17;13.98;;;12.50;94.10;;;;;;6182021;23;20363;-65
2021/05/31 01:33:07;;;;;;;18.83;13.93;;;12.40;94.20;;;;;;6156589;23;20016;-65
2021/05/31 01:35:35;;;;;;;20.08;13.50;;;12.40;94.30;;;;;;6156263;23;20016;-65
2021/05/31 01:38:03;;;;;;;18.90;13.52;;;12.30;94.40;;;;;;6182247;23;20027;-65
2021/05/31 01:40:31;;;;;;;20.67;13.90;;;12.20;94.40;;;;;;6183131;23;20005;-71
2021/05/31 01:43:00;;;;;;;19.48;13.45;;;12.20;94.50;;;;;;6182838;23;19998;-71
2021/05/31 01:45:26;;;;;;;19.00;13.43;;;12.10;94.60;;;;;;6182398;23;20021;-74
2021/05/31 01:47:52;;;;;;;19.15;13.82;;;12.10;94.70;;;;;;6183009;23;20008;-73
2021/05/31 01:50:18;;;;;;;20.63;15.00;;;12.00;94.70;;;;;;6183018;23;20005;-67
2021/05/31 01:52:46;;;;;;;19.02;13.95;;;12.00;94.80;;;;;;6181936;23;20296;-70
2021/05/31 01:55:14;;;;;;;18.27;13.40;;;12.00;94.90;;;;;;6182613;23;20419;-71
2021/05/31 01:57:41;;;;;;;23.02;15.73;;;11.90;95.00;;;;;;6182981;23;20005;-69
2021/05/31 02:00:08;;;;;;;20.25;16.55;;;11.90;95.20;;;;;;6182258;23;20051;-66
2021/05/31 02:02:34;;;;;;;22.50;15.23;;;12.00;95.20;;;;;;6182478;23;20001;-69
2021/05/31 02:05:00;;;;;;;19.45;15.93;;;12.00;95.30;;;;;;6182355;23;20085;-67
2021/05/31 02:07:25;;;;;;;20.00;14.73;;;11.90;95.30;;;;;;6182273;23;20081;-72
2021/05/31 02:09:51;;;;;;;21.58;14.63;;;11.90;95.40;;;;;;6156450;23;20008;-76
2021/05/31 02:12:22;;;;;;;21.42;15.40;;;11.90;95.40;;;;;;6156625;23;20001;-76
2021/05/31 02:15:07;;;;;;;18.60;15.07;;;11.90;95.40;;;;;;6183603;23;20330;-69
2021/05/31 02:17:43;;;;;;;17.58;15.05;;;11.80;95.50;;;;;;6184393;23;20059;-70
2021/05/31 02:20:14;;;;;;;23.35;15.82;;;11.80;95.50;;;;;;6184186;23;19998;-75
2021/05/31 02:22:54;;;;;;;18.40;14.93;;;11.70;95.50;;;;;;6184783;23;20011;-74
2021/05/31 02:25:20;;;;;;;25.00;16.10;;;11.70;95.60;;;;;;6158144;23;20259;-72
2021/05/31 02:27:47;;;;;;;20.98;15.30;;;11.60;95.60;;;;;;6183694;23;20489;-73
2021/05/31 02:30:15;;;;;;;24.20;15.93;;;11.60;95.70;;;;;;6158372;23;20036;-74
2021/05/31 02:32:55;;;;;;;21.05;16.20;;;11.70;95.80;;;;;;6158022;23;20085;-72
2021/05/31 02:35:22;;;;;;;21.85;16.30;;;11.60;95.90;;;;;;6183706;23;20013;-74
2021/05/31 02:37:48;;;;;;;20.25;15.70;;;11.60;95.90;;;;;;6184435;23;20071;-71
2021/05/31 02:40:15;;;;;;;25.80;16.13;;;11.60;96.10;;;;;;6184525;23;20438;-68
2021/05/31 02:42:48;;;;;;;22.58;16.67;;;11.50;95.90;;;;;;6183501;23;20005;-66
2021/05/31 02:45:16;;;;;;;23.60;16.58;;;11.50;96.00;;;;;;6158646;23;20098;-70
2021/05/31 02:47:42;;;;;;;23.75;17.05;;;11.50;96.00;;;;;;6157291;23;20414;-70
2021/05/31 02:50:08;;;;;;;20.85;16.30;;;11.50;96.00;;;;;;6184718;23;20001;-66
2021/05/31 02:52:34;;;;;;;21.80;15.63;;;11.40;96.00;;;;;;6184170;23;20008;-66
2021/05/31 02:55:00;;;;;;;20.20;15.25;;;11.40;96.00;;;;;;6183476;23;20009;-73
2021/05/31 02:57:26;;;;;;;20.05;16.60;;;11.30;96.10;;;;;;6184983;23;20009;-68
2021/05/31 02:59:52;;;;;;;18.17;16.13;;;11.30;96.10;;;;;;6184190;23;19997;-73
2021/05/31 03:02:18;;;;;;;26.27;16.60;;;11.20;96.20;;;;;;6183667;23;20005;-75
2021/05/31 03:04:44;;;;;;;19.08;16.20;;;11.20;96.50;;;;;;6184100;23;20414;-74
2021/05/31 03:07:09;;;;;;;20.73;14.43;;;11.10;96.20;;;;;;6184560;23;20351;-72
2021/05/31 03:09:35;;;;;;;19.48;16.90;;;11.10;96.20;;;;;;6182985;23;20001;-74
2021/05/31 03:12:00;;;;;;;19.27;15.60;;;11.00;96.20;;;;;;6184375;23;20093;-72
2021/05/31 03:14:26;;;;;;;20.67;14.82;;;11.00;96.20;;;;;;6184624;23;20008;-65
2021/05/31 03:16:51;;;;;;;16.70;14.18;;;10.90;96.20;;;;;;6156645;23;20013;-69
2021/05/31 03:19:17;;;;;;;21.08;15.60;;;10.90;96.20;;;;;;6158025;23;20005;-74
2021/05/31 03:21:43;;;;;;;18.20;15.85;;;10.90;96.30;;;;;;6184214;23;20441;-68
2021/05/31 03:24:08;;;;;;;21.33;16.50;;;10.90;96.40;;;;;;6183322;23;20004;-69
2021/05/31 03:26:34;;;;;;;17.80;15.27;;;10.80;96.40;;;;;;6183344;23;20096;-67
2021/05/31 03:28:59;;;;;;;22.25;17.55;;;10.90;96.50;;;;;;6184180;23;20031;-65
2021/05/31 03:31:25;;;;;;;21.02;17.13;;;10.90;96.50;;;;;;6183706;23;20113;-73
2021/05/31 03:33:50;;;;;;;18.58;16.58;;;10.90;96.50;;;;;;6183792;23;20025;-73
2021/05/31 03:36:16;;;;;;;24.00;17.85;;;10.80;96.50;;;;;;6184081;23;20013;-66
2021/05/31 03:38:41;;;;;;;27.15;16.88;;;10.80;96.50;;;;;;6183030;23;20403;-67
2021/05/31 03:41:07;;;;;;;24.70;17.65;;;10.80;96.60;;;;;;6184080;23;20427;-75
2021/05/31 03:43:33;;;;;;;25.88;18.33;;;10.90;96.70;;;;;;6183711;23;19997;-65
2021/05/31 03:45:58;;;;;;;21.80;17.40;;;10.90;96.70;;;;;;6156877;23;20004;-70
2021/05/31 03:48:24;;;;;;;23.45;17.63;;;10.90;96.80;;;;;;6184299;23;20008;-68
2021/05/31 03:50:49;;;;;;;25.70;17.80;;;10.90;96.80;;;;;;6156401;23;20009;-65
2021/05/31 03:53:15;;;;;;;23.48;17.35;;;10.90;96.70;;;;;;6183939;23;20420;-67
2021/05/31 03:55:40;;;;;;;27.17;19.25;;;10.90;96.70;;;;;;6157026;23;20017;-68
2021/05/31 03:58:08;;;;;;;24.17;19.00;;;10.90;96.80;;;;;;6183271;23;20028;-70
2021/05/31 04:00:33;;;;;;;30.52;19.40;;;10.90;96.80;;;;;;6183692;23;20004;-72
2021/05/31 04:02:59;;;;;;;23.40;19.48;;;11.00;96.90;;;;;;6183464;23;20002;-72
2021/05/31 04:05:29;;;;;;;23.65;18.77;;;11.00;96.90;;;;;;6183281;23;20065;-76
2021/05/31 04:13:23;;;;;;;25.80;18.75;;;11.00;96.90;;;;;;6183378;23;20020;-66
2021/05/31 04:15:49;;;;;;;29.92;20.35;;;11.00;96.90;;;;;;6157044;23;20013;-68
2021/05/31 04:18:15;;;;;;;26.25;20.02;;;11.10;97.00;;;;;;6183783;23;20005;-74
2021/05/31 04:20:40;;;;;;;29.80;20.83;;;11.10;97.00;;;;;;6182526;23;20005;-67
2021/05/31 04:23:06;;;;;;;30.17;20.83;;;11.10;97.00;;;;;;6183595;23;20407;-68
2021/05/31 04:25:32;;;;;;;25.20;18.15;;;11.20;97.00;;;;;;6182946;23;20021;-72
2021/05/31 04:27:57;;;;;;;30.10;19.70;;;11.20;96.90;;;;;;6183138;23;20079;-71
2021/05/31 04:30:23;;;;;;;22.92;18.23;;;11.20;96.90;;;;;;6157661;23;20012;-75
2021/05/31 04:32:49;;;;;;;22.80;18.55;;;11.30;96.90;;;;;;6156835;23;20008;-75
2021/05/31 04:35:15;;;;;;;22.30;18.65;;;11.20;96.80;;;;;;6156022;23;20013;-75
2021/05/31 04:37:41;;;;;;;24.27;18.27;;;11.30;96.80;;;;;;6156658;23;20005;-72
2021/05/31 04:40:07;;;;;;;28.17;18.52;;;11.30;96.80;;;;;;6182857;23;19997;-75
2021/05/31 04:42:33;;;;;;;22.63;18.13;;;11.30;96.80;;;;;;6183266;23;20326;-74
2021/05/31 04:44:58;;;;;;;25.02;18.83;;;11.30;96.80;;;;;;6183755;23;19997;-71
2021/05/31 04:47:25;;;;;;;21.80;17.50;;;11.30;96.80;;;;;;6183330;23;20015;-71
2021/05/31 04:49:51;;;;;;;21.60;18.67;;;11.40;96.80;;;;;;6156884;23;20005;-75
2021/05/31 04:52:16;;;;;;;22.40;18.45;;;11.40;96.80;;;;;;6183483;23;20426;-70
2021/05/31 04:54:43;;;;;;;21.52;18.58;;;11.50;96.80;;;;;;6155983;23;20008;-75
2021/05/31 04:57:09;;;;;;;27.92;20.52;;;11.50;96.70;;;;;;6183521;23;20013;-77
2021/05/31 04:59:34;;;;;;;23.42;18.33;;;11.60;96.70;;;;;;6183259;23;20334;-76
2021/05/31 05:02:00;;;;;;;19.90;17.73;;;11.60;96.60;;;;;;6182778;23;20013;-79
2021/05/31 05:04:25;;;;;;;24.17;18.55;;;11.60;96.50;;;;;;6179705;23;20051;-84
2021/05/31 05:06:51;;;;;;;24.05;20.50;;;11.70;96.50;;;;;;6156658;23;20359;-78
2021/05/31 05:09:16;;;;;;;25.92;18.52;;;11.80;96.40;;;;;;6181825;23;20001;-86
2021/05/31 05:11:42;;;;;;;26.00;18.80;;;11.90;96.20;;;;;;6182249;23;20080;-75
2021/05/31 05:14:07;;;;;;;26.63;18.48;;;12.00;95.80;;;;;;6182668;23;20008;-69
2021/05/31 05:16:33;;;;;;;24.38;19.13;;;12.10;95.70;;;;;;6181091;23;20009;-72
2021/05/31 05:18:58;;;;;;;20.98;16.27;;;12.20;95.60;;;;;;6155938;23;20451;-68
2021/05/31 05:21:24;;;;;;;22.33;17.45;;;12.30;95.60;;;;;;6182447;23;20415;-73
2021/05/31 05:23:50;;;;;;;16.98;14.98;;;12.40;95.60;;;;;;6181009;23;20008;-73
2021/05/31 05:26:18;;;;;;;22.50;17.65;;;12.50;95.40;;;;;;6181904;23;20097;-73
2021/05/31 05:28:43;;;;;;;25.27;16.58;;;12.60;95.30;;;;;;6182949;23;20002;-76
2021/05/31 05:31:10;;;;;;;19.75;16.33;;;12.70;95.20;;;;;;6182020;23;20011;-71
2021/05/31 05:33:38;;;;;;;20.63;14.57;;;12.80;95.20;;;;;;6181862;23;20008;-72
2021/05/31 05:36:19;;;;;;;24.33;16.65;;;12.90;95.10;;;;;;6182724;23;20009;-66
2021/05/31 05:41:41;;;;;;;25.05;16.45;;;13.10;94.80;;;;;;6182612;23;20039;-66
2021/05/31 05:46:52;;;;;;;19.02;15.38;;;13.30;94.20;;;;;;6192872;23;20012;-66
2021/05/31 05:49:17;;;;;;;18.63;14.82;;;13.40;94.00;;;;;;6182137;23;19997;-71
2021/05/31 05:51:43;;;;;;;19.13;15.45;;;13.50;93.70;;;;;;6181518;23;20055;-71
2021/05/31 05:54:08;;;;;;;19.40;14.88;;;13.60;93.50;;;;;;6182197;23;20005;-70
2021/05/31 05:56:34;;;;;;;16.50;14.57;;;13.70;93.40;;;;;;6180597;23;20592;-69
2021/05/31 15:14:56;;;;;;;5.50;3.60;;;24.50;46.70;;;;;;6184608;22;20099;-68
2021/05/31 15:17:22;;;;;;;4.22;3.17;;;24.60;46.80;;;;;;6208533;23;20468;-68
2021/05/31 15:19:47;;;;;;;3.88;3.33;;;24.60;45.70;;;;;;6211691;23;20004;-65
2021/05/31 15:22:14;;;;;;;5.50;2.90;;;24.60;43.90;;;;;;6211756;23;20324;-70
2021/05/31 15:24:41;;;;;;;5.32;2.92;;;24.60;44.60;;;;;;6212329;23;20047;-65
2021/05/31 15:27:09;;;;;;;3.67;2.92;;;24.60;43.80;;;;;;6212843;23;20078;-69
2021/05/31 15:29:35;;;;;;;3.47;3.10;;;24.60;45.40;;;;;;6212105;23;20001;-70
2021/05/31 15:32:02;;;;;;;4.57;2.92;;;24.60;45.00;;;;;;6211556;23;20017;-71
2021/05/31 15:34:27;;;;;;;5.18;3.33;;;24.60;46.90;;;;;;6213473;23;20104;-76
2021/05/31 15:36:53;;;;;;;3.97;3.35;;;24.60;47.50;;;;;;6211125;23;20016;-73
2021/05/31 15:39:18;;;;;;;4.20;3.78;;;24.70;48.10;;;;;;6212596;23;20005;-67
2021/05/31 15:41:44;;;;;;;8.38;3.80;;;24.70;47.30;;;;;;6211236;23;20397;-66
2021/05/31 15:44:10;;;;;;;4.88;3.40;;;24.80;47.00;;;;;;6210736;23;20007;-64
2021/05/31 15:46:35;;;;;;;4.13;3.40;;;24.80;46.00;;;;;;6212529;23;20031;-67
2021/05/31 15:49:01;;;;;;;5.38;3.80;;;24.80;46.20;;;;;;6213060;23;20078;-67
2021/05/31 15:51:26;;;;;;;6.65;3.60;;;24.70;45.10;;;;;;6211244;23;20005;-64
2021/05/31 15:53:53;;;;;;;4.32;3.50;;;24.70;47.60;;;;;;6213070;23;20005;-65
2021/05/31 15:56:20;;;;;;;3.92;3.25;;;24.70;48.70;;;;;;6212556;23;20421;-67
2021/05/31 15:58:47;;;;;;;6.38;3.95;;;24.70;50.10;;;;;;6210991;23;20012;-68
2021/05/31 16:01:13;;;;;;;6.38;4.18;;;24.90;49.10;;;;;;6212061;23;20084;-67
2021/05/31 16:03:39;;;;;;;4.28;3.75;;;24.90;45.90;;;;;;6212728;23;20028;-68
2021/05/31 16:06:05;;;;;;;5.03;4.10;;;25.00;46.50;;;;;;6212650;23;20325;-64
2021/05/31 16:08:34;;;;;;;6.13;3.70;;;25.10;48.00;;;;;;6212110;23;20132;-67
2021/05/31 16:11:02;;;;;;;5.65;4.00;;;25.20;46.00;;;;;;6211336;23;20325;-67
2021/05/31 16:13:28;;;;;;;5.75;3.53;;;25.70;47.40;;;;;;6210716;23;20031;-68
2021/05/31 16:15:55;;;;;;;4.60;3.88;;;26.70;48.00;;;;;;6209637;23;20429;-67
2021/05/31 16:18:20;;;;;;;3.15;2.80;;;27.90;44.10;;;;;;6211893;23;20015;-65
2021/05/31 16:20:46;;;;;;;4.82;3.38;;;28.70;41.30;;;;;;6213224;23;20076;-68
2021/05/31 16:25:38;;;;;;;5.10;3.65;;;29.90;40.80;;;;;;6212702;23;20004;-68
2021/05/31 16:28:04;;;;;;;3.28;2.88;;;30.40;39.00;;;;;;6213357;23;20005;-65
2021/05/31 16:30:31;;;;;;;3.40;3.10;;;30.80;36.50;;;;;;6212894;23;20114;-65
2021/05/31 16:32:57;;;;;;;4.78;2.92;;;31.20;38.10;;;;;;6211884;23;20028;-64
2021/05/31 16:35:23;;;;;;;5.63;3.22;;;31.60;35.20;;;;;;6213100;23;19997;-65
2021/05/31 16:37:49;;;;;;;3.60;2.70;;;31.70;35.90;;;;;;6212842;23;20267;-66
2021/05/31 16:40:15;;;;;;;3.25;2.65;;;32.00;37.70;;;;;;6212285;23;20073;-72
2021/05/31 16:42:43;;;;;;;3.70;2.83;;;32.30;36.10;;;;;;6211892;23;20320;-70
2021/05/31 16:45:10;;;;;;;4.07;3.00;;;32.40;35.10;;;;;;6213598;23;20345;-64
2021/05/31 16:47:36;;;;;;;4.45;2.90;;;32.50;33.30;;;;;;6212144;23;20401;-64
2021/05/31 16:50:02;;;;;;;5.07;3.25;;;32.50;34.70;;;;;;6213545;23;20011;-68
2021/05/31 16:52:27;;;;;;;4.32;2.70;;;32.50;32.50;;;;;;6213262;23;20024;-65
2021/05/31 16:54:53;;;;;;;3.13;2.58;;;32.60;33.50;;;;;;6211939;23;20001;-65
2021/05/31 16:57:18;;;;;;;4.40;2.28;;;32.60;34.50;;;;;;6211269;23;20322;-64
2021/05/31 16:59:44;;;;;;;2.85;2.20;;;32.70;34.50;;;;;;6212870;23;20012;-69
2021/05/31 17:02:09;;;;;;;2.58;2.30;;;32.70;34.70;;;;;;6212650;23;20147;-66
2021/05/31 17:04:35;;;;;;;5.13;3.28;;;32.80;32.50;;;;;;6212637;23;20015;-67
2021/05/31 17:07:01;;;;;;;7.50;2.92;;;32.60;32.00;;;;;;6211526;23;20005;-65
2021/05/31 17:09:29;;;;;;;2.85;2.17;;;32.60;31.90;;;;;;6213367;23;20007;-64
2021/05/31 17:20:05;;;;;;;3.35;2.50;;;32.50;31.50;;;;;;6213356;23;20016;-66
2021/05/31 17:22:31;;;;;;;2.53;1.90;;;32.60;31.20;;;;;;6212141;23;20005;-65
2021/05/31 17:24:57;;;;;;;3.97;1.90;;;32.70;31.30;;;;;;6211101;23;20001;-66
2021/05/31 17:27:23;;;;;;;1.85;1.50;;;32.60;31.20;;;;;;6213019;23;20007;-71
2021/05/31 17:29:50;;;;;;;2.83;2.05;;;32.60;30.40;;;;;;6211807;23;20015;-66
2021/05/31 17:32:31;;;;;;;3.80;1.88;;;32.60;30.40;;;;;;6211219;23;20004;-65
2021/05/31 17:35:05;;;;;;;3.63;1.75;;;32.50;29.30;;;;;;6212892;23;20004;-66
2021/05/31 17:37:31;;;;;;;1.92;1.60;;;32.20;29.10;;;;;;6211753;23;20019;-65
2021/05/31 17:40:03;;;;;;;5.07;2.53;;;31.90;28.20;;;;;;6212849;23;20000;-68
2021/05/31 17:42:33;;;;;;;2.60;1.75;;;31.80;29.10;;;;;;6212496;23;20020;-65
2021/05/31 17:44:59;;;;;;;4.45;1.88;;;31.80;29.00;;;;;;6212637;23;19996;-65
2021/05/31 17:47:27;;;;;;;3.25;1.70;;;31.70;29.30;;;;;;6212884;23;20039;-64
2021/05/31 17:49:56;;;;;;;3.17;2.10;;;31.70;29.50;;;;;;6209819;23;20005;-64
2021/05/31 17:52:22;;;;;;;3.30;2.20;;;31.70;29.30;;;;;;6212775;23;20005;-71
2021/05/31 17:54:48;;;;;;;2.65;2.22;;;31.60;29.50;;;;;;6212559;23;19996;-67
2021/05/31 17:57:13;;;;;;;3.08;2.13;;;31.30;28.50;;;;;;6211492;23;20016;-67
2021/05/31 17:59:39;;;;;;;4.07;1.88;;;31.20;29.40;;;;;;6212604;23;20004;-65
2021/05/31 18:02:06;;;;;;;1.92;1.70;;;31.00;30.60;;;;;;6212780;23;20376;-66
2021/05/31 18:04:32;;;;;;;2.45;1.88;;;30.80;29.30;;;;;;6211625;23;20032;-66
2021/05/31 18:06:58;;;;;;;1.83;1.70;;;30.60;31.40;;;;;;6212901;23;20058;-66
2021/05/31 18:09:26;;;;;;;3.10;2.00;;;30.10;30.90;;;;;;6213093;23;20071;-68
2021/05/31 18:11:51;;;;;;;2.30;1.80;;;29.30;31.80;;;;;;6211741;23;20032;-74
2021/05/31 18:14:17;;;;;;;2.40;1.83;;;28.70;33.10;;;;;;6212461;23;20004;-67
2021/05/31 18:16:43;;;;;;;2.67;2.03;;;28.20;33.40;;;;;;6211635;23;20019;-65
2021/05/31 18:19:09;;;;;;;5.30;2.10;;;27.50;35.40;;;;;;6211555;23;20000;-69
2021/05/31 18:21:34;;;;;;;4.50;2.05;;;26.70;38.00;;;;;;6210926;23;20009;-74
2021/05/31 18:24:00;;;;;;;2.40;2.20;;;26.00;37.60;;;;;;6212395;23;20005;-74
2021/05/31 18:26:25;;;;;;;4.22;2.13;;;25.30;39.00;;;;;;6210378;23;20362;-73
2021/05/31 18:28:51;;;;;;;2.67;2.17;;;24.70;37.40;;;;;;6212356;23;20437;-68
2021/05/31 18:31:16;;;;;;;2.58;2.10;;;24.10;36.70;;;;;;6212456;23;20004;-68
2021/05/31 18:33:47;;;;;;;3.63;2.75;;;23.80;38.70;;;;;;6209439;23;20001;-70
2021/05/31 18:36:19;;;;;;;5.07;2.50;;;23.50;42.20;;;;;;6211526;23;20012;-73
2021/05/31 18:38:45;;;;;;;4.40;2.72;;;23.50;41.50;;;;;;6211146;23;20028;-69
2021/05/31 18:41:12;;;;;;;2.97;2.30;;;23.60;43.20;;;;;;6212592;23;20008;-70
2021/05/31 18:43:38;;;;;;;4.55;2.90;;;23.70;41.90;;;;;;6212663;23;19997;-68
2021/05/31 18:46:05;;;;;;;7.75;3.00;;;23.80;41.70;;;;;;6211568;23;20042;-70
2021/05/31 18:48:31;;;;;;;4.63;2.50;;;23.80;40.90;;;;;;6210532;23;20037;-67
2021/05/31 18:51:02;;;;;;;5.88;2.40;;;24.00;41.30;;;;;;6211416;23;20445;-73
2021/05/31 18:53:29;;;;;;;2.22;2.00;;;24.00;40.90;;;;;;6211792;23;20055;-69
2021/05/31 18:55:54;;;;;;;2.85;2.00;;;23.80;40.90;;;;;;6212239;23;20008;-70
2021/05/31 18:58:20;;;;;;;3.42;1.95;;;23.40;43.50;;;;;;6212988;23;20011;-68
2021/05/31 19:00:45;;;;;;;2.33;1.75;;;22.90;47.20;;;;;;6213545;23;20324;-69
2021/05/31 19:03:11;;;;;;;2.90;1.73;;;22.40;49.40;;;;;;6212652;23;20011;-67
2021/05/31 19:05:37;;;;;;;3.33;2.28;;;21.90;51.80;;;;;;6213990;23;19996;-71
2021/05/31 19:08:02;;;;;;;2.85;2.03;;;21.50;53.60;;;;;;6213301;23;20012;-65
2021/05/31 19:10:29;;;;;;;2.58;2.05;;;21.10;55.20;;;;;;6214377;23;20027;-74
2021/05/31 19:12:55;;;;;;;4.63;2.20;;;20.70;56.40;;;;;;6213795;23;20007;-69
2021/05/31 19:15:21;;;;;;;4.00;2.50;;;20.40;58.30;;;;;;6213024;23;20035;-67
2021/05/31 19:17:51;;;;;;;5.25;2.50;;;20.10;59.20;;;;;;6212006;23;20016;-73
2021/05/31 19:20:17;;;;;;;4.30;2.90;;;19.80;59.40;;;;;;6214157;23;20004;-67
2021/05/31 19:22:43;;;;;;;7.88;2.97;;;19.50;59.80;;;;;;6211615;23;20031;-71
2021/05/31 19:25:11;;;;;;;5.00;3.17;;;19.30;62.30;;;;;;6212743;23;20000;-67
2021/05/31 19:27:38;;;;;;;7.10;3.58;;;19.00;63.90;;;;;;6213626;23;20365;-68
2021/05/31 19:30:07;;;;;;;5.00;3.65;;;18.80;64.20;;;;;;6212992;23;19997;-67
2021/05/31 19:32:33;;;;;;;7.25;3.83;;;18.60;63.10;;;;;;6214140;23;20092;-68
2021/05/31 19:34:59;;;;;;;6.82;3.75;;;18.50;65.20;;;;;;6213162;23;20025;-69
2021/05/31 19:37:25;;;;;;;6.63;3.13;;;18.30;66.60;;;;;;6214095;23;20429;-68
2021/05/31 19:39:50;;;;;;;4.75;3.30;;;18.10;68.30;;;;;;6213884;23;20815;-70
2021/05/31 19:42:16;;;;;;;6.38;3.90;;;17.90;69.00;;;;;;6211094;23;20032;-68
2021/05/31 19:44:42;;;;;;;6.40;3.70;;;17.70;69.50;;;;;;6211176;23;20337;-71
2021/05/31 19:47:08;;;;;;;7.75;4.10;;;17.60;70.60;;;;;;6212741;23;20011;-70
2021/05/31 19:49:34;;;;;;;13.75;9.55;;;17.50;70.90;;;;;;6212710;23;20437;-70
2021/05/31 19:52:00;;;;;;;16.63;11.27;;;17.30;67.80;;;;;;6213727;23;20001;-68
2021/05/31 19:54:46;;;;;;;30.38;19.55;;;17.20;70.10;;;;;;6213661;23;20008;-68
2021/05/31 19:57:35;;;;;;;30.83;21.17;;;17.10;70.50;;;;;;6210635;23;20008;-68
2021/05/31 20:00:01;;;;;;;27.23;18.02;;;17.00;71.10;;;;;;6211597;23;20008;-69
2021/05/31 20:02:33;;;;;;;18.98;13.48;;;16.90;71.00;;;;;;6212145;23;20084;-68
2021/05/31 20:04:59;;;;;;;24.15;13.95;;;16.80;69.60;;;;;;6212927;23;20001;-72
2021/05/31 20:07:33;;;;;;;21.77;14.43;;;16.70;69.10;;;;;;6212310;23;20031;-71
2021/05/31 20:10:10;;;;;;;23.00;14.90;;;16.60;71.80;;;;;;6213086;23;20437;-63
2021/05/31 20:12:38;;;;;;;20.02;13.00;;;16.50;73.30;;;;;;6213534;23;20034;-65
2021/05/31 20:15:08;;;;;;;13.80;9.25;;;16.40;73.30;;;;;;6211645;23;20040;-73
2021/05/31 20:17:33;;;;;;;13.15;8.75;;;16.40;73.40;;;;;;6212427;23;20345;-66
2021/05/31 20:19:59;;;;;;;8.13;6.05;;;16.30;74.40;;;;;;6213517;23;19993;-68
2021/05/31 20:22:24;;;;;;;9.85;5.80;;;16.20;73.30;;;;;;6214235;23;20036;-70
2021/05/31 20:24:54;;;;;;;9.57;5.65;;;16.10;74.70;;;;;;6212336;23;20363;-75
2021/05/31 20:27:21;;;;;;;8.77;5.30;;;16.00;74.80;;;;;;6212421;23;20080;-71
2021/05/31 20:29:46;;;;;;;6.10;4.40;;;15.90;76.50;;;;;;6213473;23;20027;-75
2021/05/31 20:32:13;;;;;;;6.65;3.90;;;15.80;76.20;;;;;;6212405;23;19997;-64
2021/05/31 20:34:39;;;;;;;5.43;3.65;;;15.70;76.50;;;;;;6213066;23;20062;-65
2021/05/31 20:37:06;;;;;;;4.85;3.25;;;15.70;76.30;;;;;;6211672;23;20013;-68
2021/05/31 20:39:32;;;;;;;6.22;3.70;;;15.60;76.80;;;;;;6212468;23;20004;-66
2021/05/31 20:41:58;;;;;;;5.32;3.17;;;15.60;76.70;;;;;;6213342;23;20005;-64
2021/05/31 20:44:26;;;;;;;4.22;3.10;;;15.50;76.80;;;;;;6213637;23;20307;-68
2021/05/31 20:46:53;;;;;;;6.05;3.60;;;15.50;77.40;;;;;;6210633;23;20001;-68
2021/05/31 20:49:18;;;;;;;5.00;2.80;;;15.40;77.70;;;;;;6212856;23;20000;-65
2021/05/31 20:51:44;;;;;;;4.85;3.40;;;15.30;78.00;;;;;;6211194;23;20015;-64
2021/05/31 20:54:09;;;;;;;5.05;2.88;;;15.20;78.20;;;;;;6211119;23;20000;-66
2021/05/31 20:56:35;;;;;;;6.85;2.97;;;15.20;78.50;;;;;;6212534;23;20013;-65
2021/05/31 20:59:00;;;;;;;3.90;2.83;;;15.10;78.70;;;;;;6213312;23;20440;-66
2021/05/31 21:01:26;;;;;;;3.80;2.50;;;15.10;78.60;;;;;;6212709;23;20043;-66
2021/05/31 21:03:52;;;;;;;3.22;2.67;;;15.00;78.50;;;;;;6212915;23;20476;-65
2021/05/31 21:06:19;;;;;;;3.55;2.80;;;15.00;78.90;;;;;;6212150;23;20009;-65
2021/05/31 21:08:52;;;;;;;3.00;2.70;;;15.00;79.00;;;;;;6213015;23;20004;-68
2021/05/31 21:11:25;;;;;;;3.85;2.58;;;14.90;78.70;;;;;;6212848;23;20008;-65
2021/05/31 21:13:59;;;;;;;5.97;2.25;;;14.90;78.60;;;;;;6212316;23;20443;-66
2021/05/31 21:16:27;;;;;;;3.75;2.45;;;14.90;79.00;;;;;;6211342;23;20017;-66
2021/05/31 21:18:53;;;;;;;3.42;2.75;;;14.90;79.30;;;;;;6212481;23;20026;-64
2021/05/31 21:21:20;;;;;;;3.90;2.65;;;14.80;79.50;;;;;;6210726;23;20008;-72
2021/05/31 21:23:53;;;;;;;4.18;2.47;;;14.70;79.00;;;;;;6211103;23;20221;-64
2021/05/31 21:26:19;;;;;;;4.93;2.83;;;14.70;78.20;;;;;;6212847;23;20484;-64
2021/05/31 21:28:45;;;;;;;3.15;2.45;;;14.70;79.00;;;;;;6211949;23;20001;-66
2021/05/31 21:31:11;;;;;;;5.85;3.10;;;14.60;79.70;;;;;;6213370;23;20326;-64
2021/05/31 21:33:38;;;;;;;6.28;2.85;;;14.60;79.20;;;;;;6212941;23;19996;-63
2021/05/31 21:36:04;;;;;;;5.57;2.67;;;14.50;80.00;;;;;;6211799;23;20012;-66
2021/05/31 21:38:33;;;;;;;5.28;3.10;;;14.50;79.60;;;;;;6213304;23;20385;-65
2021/05/31 21:40:59;;;;;;;4.07;2.90;;;14.50;80.30;;;;;;6212812;23;20027;-67
2021/05/31 21:43:25;;;;;;;3.45;2.40;;;14.50;80.10;;;;;;6212191;23;20448;-65
2021/05/31 21:45:50;;;;;;;4.55;2.40;;;14.50;79.40;;;;;;6212635;23;20000;-65
2021/05/31 21:48:16;;;;;;;4.65;2.58;;;14.50;79.00;;;;;;6212842;23;20005;-72
2021/05/31 21:50:42;;;;;;;2.60;2.20;;;14.60;78.30;;;;;;6211617;23;20004;-65
2021/05/31 21:53:11;;;;;;;5.68;2.58;;;14.60;78.90;;;;;;6211224;23;20005;-66
2021/05/31 21:55:37;;;;;;;4.72;2.45;;;14.60;79.40;;;;;;6211443;23;20429;-67
2021/05/31 21:58:05;;;;;;;2.03;1.83;;;14.60;79.40;;;;;;6212801;23;20032;-69
2021/05/31 22:00:50;;;;;;;2.50;1.90;;;14.60;79.80;;;;;;6212527;23;20051;-67
2021/05/31 22:03:19;;;;;;;3.40;2.00;;;14.50;78.90;;;;;;6212082;23;20008;-73
2021/05/31 22:05:45;;;;;;;3.70;2.03;;;14.50;79.70;;;;;;6212285;23;20421;-71
2021/05/31 22:08:11;;;;;;;4.32;1.95;;;14.40;79.70;;;;;;6212794;23;20426;-67
2021/05/31 22:10:37;;;;;;;3.22;2.13;;;14.40;80.30;;;;;;6211695;23;20422;-70
2021/05/31 22:13:07;;;;;;;3.20;2.45;;;14.30;79.30;;;;;;6212636;23;20353;-73
2021/05/31 22:15:37;;;;;;;4.82;2.40;;;14.20;79.00;;;;;;6211906;23;20016;-67